KMPZ/MPZ METAR and TAF weather

Enter ICAO airport designator
Station Type Date Time Source
KMPZ METAR 2021/04/18 01:35 UTC NOAA

KMPZ 180135Z AUTO 00000KT 10SM CLR 12/00 A2996 RMK AO2


Station Type Date Time Source
KMPZ Decoded METAR 2021/04/18 01:35 UTC NOAA

Mount Pleasant, Mount Pleasant Municipal Airport, IA, United States (KMPZ) 40-56-48N 091-30-40W
Apr 17, 2021 - 09:35 PM EDT / 2021.04.18 0135 UTC
Wind: Calm:0
Visibility: 10 mile(s):0
Sky conditions: clear
Temperature: 53 F (12 C)
Dew Point: 32 F (0 C)
Relative Humidity: 43%
Pressure (altimeter): 29.96 in. Hg (1014 hPa)
ob: KMPZ 180135Z AUTO 00000KT 10SM CLR 12/00 A2996 RMK AO2
cycle: 1

Station Type Date Time Source
KMPZ TAF UTC NOAA

Error!

Example: see airport list